sensor_id;sensor_type;location;lat;lon;timestamp;P1;durP1;ratioP1;P2;durP2;ratioP2
67037;SDS011;53940;53.204;6.590;2022-07-23T00:00:16;1.70;;;1.10;;
67037;SDS011;53940;53.204;6.590;2022-07-23T00:03:17;2.92;;;1.30;;
67037;SDS011;53940;53.204;6.590;2022-07-23T00:06:17;2.20;;;1.10;;
67037;SDS011;53940;53.204;6.590;2022-07-23T00:09:18;1.95;;;1.10;;
67037;SDS011;53940;53.204;6.590;2022-07-23T00:12:18;2.22;;;1.15;;
67037;SDS011;53940;53.204;6.590;2022-07-23T00:15:18;2.20;;;1.02;;
67037;SDS011;53940;53.204;6.590;2022-07-23T00:18:19;2.40;;;1.27;;
67037;SDS011;53940;53.204;6.590;2022-07-23T00:21:19;1.90;;;1.00;;
67037;SDS011;53940;53.204;6.590;2022-07-23T00:24:19;2.50;;;1.17;;
67037;SDS011;53940;53.204;6.590;2022-07-23T00:27:20;2.15;;;1.10;;
67037;SDS011;53940;53.204;6.590;2022-07-23T00:30:21;3.05;;;1.25;;
67037;SDS011;53940;53.204;6.590;2022-07-23T00:33:21;2.13;;;1.20;;
67037;SDS011;53940;53.204;6.590;2022-07-23T00:36:22;2.08;;;1.08;;
67037;SDS011;53940;53.204;6.590;2022-07-23T00:39:23;2.30;;;0.85;;
67037;SDS011;53940;53.204;6.590;2022-07-23T00:42:23;2.10;;;1.13;;
67037;SDS011;53940;53.204;6.590;2022-07-23T00:45:24;2.25;;;1.10;;
67037;SDS011;53940;53.204;6.590;2022-07-23T00:48:24;2.40;;;1.10;;
67037;SDS011;53940;53.204;6.590;2022-07-23T00:51:24;1.95;;;0.90;;
67037;SDS011;53940;53.204;6.590;2022-07-23T00:54:25;2.53;;;1.15;;
67037;SDS011;53940;53.204;6.590;2022-07-23T00:57:27;2.97;;;0.95;;
67037;SDS011;53940;53.204;6.590;2022-07-23T01:00:27;2.67;;;1.13;;
67037;SDS011;53940;53.204;6.590;2022-07-23T01:03:28;2.70;;;1.20;;
67037;SDS011;53940;53.204;6.590;2022-07-23T01:06:29;2.33;;;0.88;;
67037;SDS011;53940;53.204;6.590;2022-07-23T01:09:30;1.58;;;0.90;;
67037;SDS011;53940;53.204;6.590;2022-07-23T01:12:31;2.58;;;1.10;;
67037;SDS011;53940;53.204;6.590;2022-07-23T01:15:32;1.75;;;0.88;;
67037;SDS011;53940;53.204;6.590;2022-07-23T01:18:34;1.83;;;1.00;;
67037;SDS011;53940;53.204;6.590;2022-07-23T01:21:39;2.03;;;1.10;;
67037;SDS011;53940;53.204;6.590;2022-07-23T01:24:41;2.43;;;0.80;;
67037;SDS011;53940;53.204;6.590;2022-07-23T01:27:41;2.00;;;0.90;;
67037;SDS011;53940;53.204;6.590;2022-07-23T01:30:42;1.75;;;0.90;;
67037;SDS011;53940;53.204;6.590;2022-07-23T01:33:42;1.70;;;1.00;;
67037;SDS011;53940;53.204;6.590;2022-07-23T01:36:43;1.60;;;1.00;;
67037;SDS011;53940;53.204;6.590;2022-07-23T01:39:43;1.88;;;0.80;;
67037;SDS011;53940;53.204;6.590;2022-07-23T01:42:46;2.10;;;1.13;;
67037;SDS011;53940;53.204;6.590;2022-07-23T01:45:47;2.15;;;0.85;;
67037;SDS011;53940;53.204;6.590;2022-07-23T01:48:47;1.98;;;0.82;;
67037;SDS011;53940;53.204;6.590;2022-07-23T01:51:47;1.80;;;0.93;;
67037;SDS011;53940;53.204;6.590;2022-07-23T01:55:00;1.90;;;0.90;;
67037;SDS011;53940;53.204;6.590;2022-07-23T01:58:00;2.08;;;1.02;;
67037;SDS011;53940;53.204;6.590;2022-07-23T02:01:01;2.00;;;0.80;;
67037;SDS011;53940;53.204;6.590;2022-07-23T02:04:01;1.80;;;1.00;;
67037;SDS011;53940;53.204;6.590;2022-07-23T02:07:02;1.38;;;0.75;;
67037;SDS011;53940;53.204;6.590;2022-07-23T02:10:03;1.95;;;0.88;;
67037;SDS011;53940;53.204;6.590;2022-07-23T02:13:04;1.80;;;0.88;;
67037;SDS011;53940;53.204;6.590;2022-07-23T02:16:05;1.60;;;0.80;;
67037;SDS011;53940;53.204;6.590;2022-07-23T02:19:05;2.15;;;0.98;;
67037;SDS011;53940;53.204;6.590;2022-07-23T02:22:05;2.00;;;0.90;;
67037;SDS011;53940;53.204;6.590;2022-07-23T02:25:06;1.40;;;0.70;;
67037;SDS011;53940;53.204;6.590;2022-07-23T02:28:07;1.67;;;0.82;;
67037;SDS011;53940;53.204;6.590;2022-07-23T02:31:07;1.75;;;0.80;;
67037;SDS011;53940;53.204;6.590;2022-07-23T02:34:08;2.60;;;0.90;;
67037;SDS011;53940;53.204;6.590;2022-07-23T02:37:11;1.95;;;1.10;;
67037;SDS011;53940;53.204;6.590;2022-07-23T02:40:12;1.58;;;0.82;;
67037;SDS011;53940;53.204;6.590;2022-07-23T02:43:12;1.80;;;1.00;;
67037;SDS011;53940;53.204;6.590;2022-07-23T02:46:12;1.70;;;0.95;;
67037;SDS011;53940;53.204;6.590;2022-07-23T02:49:13;1.95;;;0.77;;
67037;SDS011;53940;53.204;6.590;2022-07-23T02:52:13;1.70;;;0.70;;
67037;SDS011;53940;53.204;6.590;2022-07-23T02:55:13;1.50;;;0.77;;
67037;SDS011;53940;53.204;6.590;2022-07-23T02:58:14;1.30;;;0.85;;
67037;SDS011;53940;53.204;6.590;2022-07-23T03:01:14;2.08;;;0.98;;
67037;SDS011;53940;53.204;6.590;2022-07-23T03:04:14;1.35;;;0.70;;
67037;SDS011;53940;53.204;6.590;2022-07-23T03:07:15;1.35;;;0.70;;
67037;SDS011;53940;53.204;6.590;2022-07-23T03:10:16;1.50;;;0.80;;
67037;SDS011;53940;53.204;6.590;2022-07-23T03:13:17;1.63;;;0.80;;
67037;SDS011;53940;53.204;6.590;2022-07-23T03:16:17;1.50;;;0.80;;
67037;SDS011;53940;53.204;6.590;2022-07-23T03:19:18;1.70;;;0.80;;
67037;SDS011;53940;53.204;6.590;2022-07-23T03:22:18;1.35;;;0.80;;
67037;SDS011;53940;53.204;6.590;2022-07-23T03:25:18;1.92;;;0.82;;
67037;SDS011;53940;53.204;6.590;2022-07-23T03:28:19;1.52;;;0.80;;
67037;SDS011;53940;53.204;6.590;2022-07-23T03:31:19;2.03;;;0.90;;
67037;SDS011;53940;53.204;6.590;2022-07-23T03:34:19;2.63;;;0.90;;
67037;SDS011;53940;53.204;6.590;2022-07-23T03:37:20;1.63;;;0.90;;
67037;SDS011;53940;53.204;6.590;2022-07-23T03:40:20;2.03;;;0.80;;
67037;SDS011;53940;53.204;6.590;2022-07-23T03:43:20;1.15;;;0.70;;
67037;SDS011;53940;53.204;6.590;2022-07-23T03:46:21;1.83;;;0.77;;
67037;SDS011;53940;53.204;6.590;2022-07-23T03:49:21;1.80;;;1.00;;
67037;SDS011;53940;53.204;6.590;2022-07-23T03:52:21;1.70;;;1.17;;
67037;SDS011;53940;53.204;6.590;2022-07-23T03:55:22;1.40;;;0.80;;
67037;SDS011;53940;53.204;6.590;2022-07-23T03:58:22;1.52;;;0.70;;
67037;SDS011;53940;53.204;6.590;2022-07-23T04:01:22;1.90;;;0.93;;
67037;SDS011;53940;53.204;6.590;2022-07-23T04:04:23;1.45;;;0.88;;
67037;SDS011;53940;53.204;6.590;2022-07-23T04:07:23;1.17;;;0.70;;
67037;SDS011;53940;53.204;6.590;2022-07-23T04:10:23;1.98;;;0.95;;
67037;SDS011;53940;53.204;6.590;2022-07-23T04:13:24;1.77;;;0.80;;
67037;SDS011;53940;53.204;6.590;2022-07-23T04:16:24;1.52;;;0.80;;
67037;SDS011;53940;53.204;6.590;2022-07-23T04:19:25;1.05;;;0.70;;
67037;SDS011;53940;53.204;6.590;2022-07-23T04:22:26;0.93;;;0.65;;
67037;SDS011;53940;53.204;6.590;2022-07-23T04:25:26;1.45;;;0.70;;
67037;SDS011;53940;53.204;6.590;2022-07-23T04:28:26;1.45;;;0.77;;
67037;SDS011;53940;53.204;6.590;2022-07-23T04:31:27;2.17;;;0.95;;
67037;SDS011;53940;53.204;6.590;2022-07-23T04:34:27;1.70;;;0.80;;
67037;SDS011;53940;53.204;6.590;2022-07-23T04:37:27;1.90;;;0.88;;
67037;SDS011;53940;53.204;6.590;2022-07-23T04:40:28;1.27;;;0.70;;
67037;SDS011;53940;53.204;6.590;2022-07-23T04:43:29;1.40;;;0.75;;
67037;SDS011;53940;53.204;6.590;2022-07-23T04:46:29;1.40;;;0.70;;
67037;SDS011;53940;53.204;6.590;2022-07-23T04:49:29;1.98;;;0.90;;
67037;SDS011;53940;53.204;6.590;2022-07-23T04:52:30;1.33;;;0.70;;
67037;SDS011;53940;53.204;6.590;2022-07-23T04:55:30;1.35;;;0.75;;
67037;SDS011;53940;53.204;6.590;2022-07-23T04:58:30;1.20;;;0.80;;
67037;SDS011;53940;53.204;6.590;2022-07-23T05:01:31;1.65;;;0.80;;
67037;SDS011;53940;53.204;6.590;2022-07-23T05:04:32;1.80;;;0.82;;
67037;SDS011;53940;53.204;6.590;2022-07-23T05:07:32;1.73;;;1.10;;
67037;SDS011;53940;53.204;6.590;2022-07-23T05:10:33;1.50;;;0.73;;
67037;SDS011;53940;53.204;6.590;2022-07-23T05:13:33;2.13;;;0.70;;
67037;SDS011;53940;53.204;6.590;2022-07-23T05:16:33;1.85;;;0.70;;
67037;SDS011;53940;53.204;6.590;2022-07-23T05:19:34;1.70;;;0.73;;
67037;SDS011;53940;53.204;6.590;2022-07-23T05:22:34;1.38;;;0.70;;
67037;SDS011;53940;53.204;6.590;2022-07-23T05:25:35;1.88;;;0.90;;
67037;SDS011;53940;53.204;6.590;2022-07-23T05:28:35;0.95;;;0.60;;
67037;SDS011;53940;53.204;6.590;2022-07-23T05:31:35;1.50;;;0.80;;
67037;SDS011;53940;53.204;6.590;2022-07-23T05:34:36;1.77;;;0.70;;
67037;SDS011;53940;53.204;6.590;2022-07-23T05:37:36;1.42;;;0.70;;
67037;SDS011;53940;53.204;6.590;2022-07-23T05:40:37;1.30;;;0.52;;
67037;SDS011;53940;53.204;6.590;2022-07-23T05:43:37;1.30;;;0.70;;
67037;SDS011;53940;53.204;6.590;2022-07-23T05:46:37;1.30;;;0.50;;
67037;SDS011;53940;53.204;6.590;2022-07-23T05:49:38;1.33;;;0.60;;
67037;SDS011;53940;53.204;6.590;2022-07-23T05:52:39;1.73;;;0.65;;
67037;SDS011;53940;53.204;6.590;2022-07-23T05:55:40;1.17;;;0.60;;
67037;SDS011;53940;53.204;6.590;2022-07-23T05:58:40;1.58;;;0.77;;
67037;SDS011;53940;53.204;6.590;2022-07-23T06:01:40;1.85;;;0.90;;
67037;SDS011;53940;53.204;6.590;2022-07-23T06:04:41;1.50;;;0.77;;
67037;SDS011;53940;53.204;6.590;2022-07-23T06:07:42;1.10;;;0.52;;
67037;SDS011;53940;53.204;6.590;2022-07-23T06:10:42;1.60;;;0.80;;
67037;SDS011;53940;53.204;6.590;2022-07-23T06:13:42;1.52;;;0.70;;
67037;SDS011;53940;53.204;6.590;2022-07-23T06:16:43;1.35;;;0.73;;
67037;SDS011;53940;53.204;6.590;2022-07-23T06:19:43;1.05;;;0.63;;
67037;SDS011;53940;53.204;6.590;2022-07-23T06:22:43;1.40;;;0.57;;
67037;SDS011;53940;53.204;6.590;2022-07-23T06:25:44;1.23;;;0.65;;
67037;SDS011;53940;53.204;6.590;2022-07-23T06:28:44;1.73;;;0.80;;
67037;SDS011;53940;53.204;6.590;2022-07-23T06:31:44;1.73;;;0.77;;
67037;SDS011;53940;53.204;6.590;2022-07-23T06:34:45;2.80;;;0.88;;
67037;SDS011;53940;53.204;6.590;2022-07-23T06:37:46;1.25;;;0.60;;
67037;SDS011;53940;53.204;6.590;2022-07-23T06:40:46;2.20;;;0.70;;
67037;SDS011;53940;53.204;6.590;2022-07-23T06:43:46;1.67;;;0.95;;
67037;SDS011;53940;53.204;6.590;2022-07-23T06:46:47;1.33;;;0.70;;
67037;SDS011;53940;53.204;6.590;2022-07-23T06:49:47;1.40;;;0.68;;
67037;SDS011;53940;53.204;6.590;2022-07-23T06:52:47;1.92;;;0.80;;
67037;SDS011;53940;53.204;6.590;2022-07-23T06:55:48;2.05;;;0.70;;
67037;SDS011;53940;53.204;6.590;2022-07-23T06:58:48;0.82;;;0.52;;
67037;SDS011;53940;53.204;6.590;2022-07-23T07:01:48;1.20;;;0.55;;
67037;SDS011;53940;53.204;6.590;2022-07-23T07:04:49;0.88;;;0.50;;
67037;SDS011;53940;53.204;6.590;2022-07-23T07:07:49;1.25;;;0.60;;
67037;SDS011;53940;53.204;6.590;2022-07-23T07:10:50;1.52;;;0.80;;
67037;SDS011;53940;53.204;6.590;2022-07-23T07:13:51;1.00;;;0.60;;
67037;SDS011;53940;53.204;6.590;2022-07-23T07:16:51;0.90;;;0.50;;
67037;SDS011;53940;53.204;6.590;2022-07-23T07:19:51;1.05;;;0.60;;
67037;SDS011;53940;53.204;6.590;2022-07-23T07:22:52;0.85;;;0.60;;
67037;SDS011;53940;53.204;6.590;2022-07-23T07:25:52;1.52;;;0.60;;
67037;SDS011;53940;53.204;6.590;2022-07-23T07:28:53;1.55;;;0.68;;
67037;SDS011;53940;53.204;6.590;2022-07-23T07:31:53;1.00;;;0.60;;
67037;SDS011;53940;53.204;6.590;2022-07-23T07:34:54;1.20;;;0.60;;
67037;SDS011;53940;53.204;6.590;2022-07-23T07:37:54;1.92;;;0.90;;
67037;SDS011;53940;53.204;6.590;2022-07-23T07:40:54;1.08;;;0.70;;
67037;SDS011;53940;53.204;6.590;2022-07-23T07:43:55;0.82;;;0.60;;
67037;SDS011;53940;53.204;6.590;2022-07-23T07:46:55;1.20;;;0.70;;
67037;SDS011;53940;53.204;6.590;2022-07-23T07:49:55;1.08;;;0.50;;
67037;SDS011;53940;53.204;6.590;2022-07-23T07:52:56;1.23;;;0.57;;
67037;SDS011;53940;53.204;6.590;2022-07-23T07:55:56;1.80;;;0.60;;
67037;SDS011;53940;53.204;6.590;2022-07-23T07:58:57;0.70;;;0.50;;
67037;SDS011;53940;53.204;6.590;2022-07-23T08:01:58;1.15;;;0.60;;
67037;SDS011;53940;53.204;6.590;2022-07-23T08:04:58;1.23;;;0.60;;
67037;SDS011;53940;53.204;6.590;2022-07-23T08:07:59;0.93;;;0.57;;
67037;SDS011;53940;53.204;6.590;2022-07-23T08:10:59;1.02;;;0.60;;
67037;SDS011;53940;53.204;6.590;2022-07-23T08:14:00;1.17;;;0.70;;
67037;SDS011;53940;53.204;6.590;2022-07-23T08:17:00;1.85;;;0.60;;
67037;SDS011;53940;53.204;6.590;2022-07-23T08:20:00;1.10;;;0.50;;
67037;SDS011;53940;53.204;6.590;2022-07-23T08:23:04;0.68;;;0.40;;
67037;SDS011;53940;53.204;6.590;2022-07-23T08:26:09;1.83;;;0.60;;
67037;SDS011;53940;53.204;6.590;2022-07-23T08:29:09;1.20;;;0.50;;
67037;SDS011;53940;53.204;6.590;2022-07-23T08:32:10;1.23;;;0.80;;
67037;SDS011;53940;53.204;6.590;2022-07-23T08:35:10;1.10;;;0.60;;
67037;SDS011;53940;53.204;6.590;2022-07-23T08:38:11;1.13;;;0.60;;
67037;SDS011;53940;53.204;6.590;2022-07-23T08:41:12;1.10;;;0.60;;
67037;SDS011;53940;53.204;6.590;2022-07-23T08:44:12;0.88;;;0.50;;
67037;SDS011;53940;53.204;6.590;2022-07-23T08:47:15;1.67;;;0.50;;
67037;SDS011;53940;53.204;6.590;2022-07-23T08:50:16;1.02;;;0.60;;
67037;SDS011;53940;53.204;6.590;2022-07-23T08:53:17;1.20;;;0.60;;
67037;SDS011;53940;53.204;6.590;2022-07-23T08:56:18;0.80;;;0.45;;
67037;SDS011;53940;53.204;6.590;2022-07-23T08:59:18;1.63;;;0.50;;
67037;SDS011;53940;53.204;6.590;2022-07-23T09:02:19;0.70;;;0.50;;
67037;SDS011;53940;53.204;6.590;2022-07-23T09:05:19;1.38;;;0.60;;
67037;SDS011;53940;53.204;6.590;2022-07-23T09:08:21;1.45;;;0.45;;
67037;SDS011;53940;53.204;6.590;2022-07-23T09:11:22;0.80;;;0.50;;
67037;SDS011;53940;53.204;6.590;2022-07-23T09:17:42;1.15;;;0.60;;
67037;SDS011;53940;53.204;6.590;2022-07-23T09:20:46;1.02;;;0.55;;
67037;SDS011;53940;53.204;6.590;2022-07-23T09:26:48;0.77;;;0.40;;
67037;SDS011;53940;53.204;6.590;2022-07-23T09:29:55;1.30;;;0.40;;
67037;SDS011;53940;53.204;6.590;2022-07-23T09:33:03;2.63;;;0.40;;
67037;SDS011;53940;53.204;6.590;2022-07-23T09:36:08;1.60;;;0.60;;
67037;SDS011;53940;53.204;6.590;2022-07-23T09:39:09;1.02;;;0.50;;
67037;SDS011;53940;53.204;6.590;2022-07-23T09:42:23;1.50;;;0.55;;
67037;SDS011;53940;53.204;6.590;2022-07-23T09:45:25;1.25;;;0.50;;
67037;SDS011;53940;53.204;6.590;2022-07-23T09:48:25;1.88;;;0.60;;
67037;SDS011;53940;53.204;6.590;2022-07-23T09:51:26;1.38;;;0.50;;
67037;SDS011;53940;53.204;6.590;2022-07-23T09:54:37;1.27;;;0.55;;
67037;SDS011;53940;53.204;6.590;2022-07-23T09:57:42;1.10;;;0.60;;
67037;SDS011;53940;53.204;6.590;2022-07-23T10:00:50;1.10;;;0.60;;
67037;SDS011;53940;53.204;6.590;2022-07-23T10:03:50;1.48;;;0.60;;
67037;SDS011;53940;53.204;6.590;2022-07-23T10:06:51;1.60;;;0.60;;
67037;SDS011;53940;53.204;6.590;2022-07-23T10:09:53;0.82;;;0.50;;
67037;SDS011;53940;53.204;6.590;2022-07-23T10:12:54;1.02;;;0.50;;
67037;SDS011;53940;53.204;6.590;2022-07-23T10:16:25;1.88;;;0.65;;
67037;SDS011;53940;53.204;6.590;2022-07-23T10:19:26;1.30;;;0.50;;
67037;SDS011;53940;53.204;6.590;2022-07-23T10:22:34;1.08;;;0.50;;
67037;SDS011;53940;53.204;6.590;2022-07-23T10:25:42;1.17;;;0.50;;
67037;SDS011;53940;53.204;6.590;2022-07-23T10:29:02;1.70;;;0.40;;
67037;SDS011;53940;53.204;6.590;2022-07-23T10:32:08;1.30;;;0.60;;
67037;SDS011;53940;53.204;6.590;2022-07-23T10:35:28;0.80;;;0.40;;
67037;SDS011;53940;53.204;6.590;2022-07-23T10:38:50;0.85;;;0.50;;
67037;SDS011;53940;53.204;6.590;2022-07-23T10:42:08;0.73;;;0.47;;
67037;SDS011;53940;53.204;6.590;2022-07-23T10:45:29;1.52;;;0.60;;
67037;SDS011;53940;53.204;6.590;2022-07-23T10:48:36;1.98;;;0.60;;
67037;SDS011;53940;53.204;6.590;2022-07-23T10:51:37;2.20;;;0.88;;
67037;SDS011;53940;53.204;6.590;2022-07-23T10:54:37;3.47;;;0.98;;
67037;SDS011;53940;53.204;6.590;2022-07-23T10:57:50;4.22;;;1.27;;
67037;SDS011;53940;53.204;6.590;2022-07-23T11:00:51;5.65;;;1.67;;
67037;SDS011;53940;53.204;6.590;2022-07-23T11:04:00;5.13;;;1.60;;
67037;SDS011;53940;53.204;6.590;2022-07-23T11:10:01;7.77;;;2.00;;
67037;SDS011;53940;53.204;6.590;2022-07-23T11:16:22;5.13;;;1.70;;
67037;SDS011;53940;53.204;6.590;2022-07-23T11:19:24;5.82;;;2.20;;
67037;SDS011;53940;53.204;6.590;2022-07-23T11:22:40;4.97;;;2.00;;
67037;SDS011;53940;53.204;6.590;2022-07-23T11:25:47;3.35;;;1.38;;
67037;SDS011;53940;53.204;6.590;2022-07-23T11:28:48;4.93;;;1.58;;
67037;SDS011;53940;53.204;6.590;2022-07-23T11:31:52;2.58;;;1.20;;
67037;SDS011;53940;53.204;6.590;2022-07-23T11:34:53;4.80;;;1.70;;
67037;SDS011;53940;53.204;6.590;2022-07-23T11:37:54;4.38;;;1.52;;
67037;SDS011;53940;53.204;6.590;2022-07-23T11:41:02;3.83;;;1.95;;
67037;SDS011;53940;53.204;6.590;2022-07-23T11:44:02;7.40;;;1.60;;
67037;SDS011;53940;53.204;6.590;2022-07-23T11:47:04;5.47;;;1.58;;
67037;SDS011;53940;53.204;6.590;2022-07-23T11:50:06;4.47;;;1.75;;
67037;SDS011;53940;53.204;6.590;2022-07-23T11:53:07;3.90;;;1.58;;
67037;SDS011;53940;53.204;6.590;2022-07-23T11:56:08;5.03;;;1.50;;
67037;SDS011;53940;53.204;6.590;2022-07-23T11:59:10;3.95;;;1.63;;
67037;SDS011;53940;53.204;6.590;2022-07-23T12:02:11;4.80;;;1.52;;
67037;SDS011;53940;53.204;6.590;2022-07-23T12:05:12;3.70;;;1.50;;
67037;SDS011;53940;53.204;6.590;2022-07-23T12:08:14;4.10;;;1.50;;
67037;SDS011;53940;53.204;6.590;2022-07-23T12:11:14;3.92;;;1.40;;
67037;SDS011;53940;53.204;6.590;2022-07-23T12:14:14;5.38;;;1.38;;
67037;SDS011;53940;53.204;6.590;2022-07-23T12:17:15;3.13;;;1.20;;
67037;SDS011;53940;53.204;6.590;2022-07-23T12:20:16;4.38;;;1.50;;
67037;SDS011;53940;53.204;6.590;2022-07-23T12:23:25;3.97;;;1.33;;
67037;SDS011;53940;53.204;6.590;2022-07-23T12:26:26;3.97;;;1.40;;
67037;SDS011;53940;53.204;6.590;2022-07-23T12:29:33;4.03;;;1.38;;
67037;SDS011;53940;53.204;6.590;2022-07-23T12:32:35;3.58;;;1.40;;
67037;SDS011;53940;53.204;6.590;2022-07-23T12:35:45;2.80;;;1.10;;
67037;SDS011;53940;53.204;6.590;2022-07-23T12:38:47;3.75;;;1.23;;
67037;SDS011;53940;53.204;6.590;2022-07-23T12:41:52;3.67;;;1.30;;
67037;SDS011;53940;53.204;6.590;2022-07-23T12:45:06;2.80;;;1.25;;
67037;SDS011;53940;53.204;6.590;2022-07-23T12:48:08;3.85;;;1.20;;
67037;SDS011;53940;53.204;6.590;2022-07-23T12:51:09;3.30;;;1.13;;
67037;SDS011;53940;53.204;6.590;2022-07-23T12:54:15;3.17;;;1.20;;
67037;SDS011;53940;53.204;6.590;2022-07-23T12:57:15;3.72;;;1.30;;
67037;SDS011;53940;53.204;6.590;2022-07-23T13:00:16;3.58;;;1.40;;
67037;SDS011;53940;53.204;6.590;2022-07-23T13:03:20;4.40;;;1.73;;
67037;SDS011;53940;53.204;6.590;2022-07-23T13:06:25;4.28;;;1.25;;
67037;SDS011;53940;53.204;6.590;2022-07-23T13:09:29;4.32;;;1.25;;
67037;SDS011;53940;53.204;6.590;2022-07-23T13:12:31;2.15;;;0.88;;
67037;SDS011;53940;53.204;6.590;2022-07-23T13:15:31;3.60;;;1.10;;
67037;SDS011;53940;53.204;6.590;2022-07-23T13:18:33;3.17;;;1.20;;
67037;SDS011;53940;53.204;6.590;2022-07-23T13:21:33;2.95;;;0.93;;
67037;SDS011;53940;53.204;6.590;2022-07-23T13:24:33;2.22;;;0.98;;
67037;SDS011;53940;53.204;6.590;2022-07-23T13:27:34;2.03;;;0.80;;
67037;SDS011;53940;53.204;6.590;2022-07-23T13:30:34;3.63;;;0.98;;
67037;SDS011;53940;53.204;6.590;2022-07-23T13:33:35;2.22;;;1.02;;
67037;SDS011;53940;53.204;6.590;2022-07-23T13:36:35;4.53;;;1.08;;
67037;SDS011;53940;53.204;6.590;2022-07-23T13:39:36;3.50;;;1.20;;
67037;SDS011;53940;53.204;6.590;2022-07-23T13:42:37;2.70;;;1.10;;
67037;SDS011;53940;53.204;6.590;2022-07-23T13:45:37;2.83;;;1.30;;
67037;SDS011;53940;53.204;6.590;2022-07-23T13:48:38;3.65;;;1.13;;
67037;SDS011;53940;53.204;6.590;2022-07-23T13:51:39;3.20;;;1.00;;
67037;SDS011;53940;53.204;6.590;2022-07-23T13:54:39;3.13;;;0.90;;
67037;SDS011;53940;53.204;6.590;2022-07-23T13:57:39;2.83;;;1.30;;
67037;SDS011;53940;53.204;6.590;2022-07-23T14:00:42;2.85;;;0.90;;
67037;SDS011;53940;53.204;6.590;2022-07-23T14:03:45;2.80;;;1.10;;
67037;SDS011;53940;53.204;6.590;2022-07-23T14:06:45;2.58;;;1.02;;
67037;SDS011;53940;53.204;6.590;2022-07-23T14:09:45;2.60;;;1.00;;
67037;SDS011;53940;53.204;6.590;2022-07-23T14:12:46;2.10;;;0.80;;
67037;SDS011;53940;53.204;6.590;2022-07-23T14:15:48;3.40;;;1.00;;
67037;SDS011;53940;53.204;6.590;2022-07-23T14:18:49;2.90;;;1.10;;
67037;SDS011;53940;53.204;6.590;2022-07-23T14:21:49;2.53;;;0.98;;
67037;SDS011;53940;53.204;6.590;2022-07-23T14:24:50;2.42;;;1.25;;
67037;SDS011;53940;53.204;6.590;2022-07-23T14:27:50;3.08;;;0.88;;
67037;SDS011;53940;53.204;6.590;2022-07-23T14:30:51;1.80;;;1.00;;
67037;SDS011;53940;53.204;6.590;2022-07-23T14:33:51;2.78;;;1.00;;
67037;SDS011;53940;53.204;6.590;2022-07-23T14:36:52;2.50;;;1.00;;
67037;SDS011;53940;53.204;6.590;2022-07-23T14:39:52;3.72;;;0.93;;
67037;SDS011;53940;53.204;6.590;2022-07-23T14:42:52;1.80;;;0.70;;
67037;SDS011;53940;53.204;6.590;2022-07-23T14:45:53;2.80;;;0.90;;
67037;SDS011;53940;53.204;6.590;2022-07-23T14:48:53;3.20;;;1.00;;
67037;SDS011;53940;53.204;6.590;2022-07-23T14:51:53;1.77;;;0.70;;
67037;SDS011;53940;53.204;6.590;2022-07-23T14:54:54;2.72;;;1.00;;
67037;SDS011;53940;53.204;6.590;2022-07-23T14:57:54;2.33;;;1.02;;
67037;SDS011;53940;53.204;6.590;2022-07-23T15:00:54;2.28;;;0.98;;
67037;SDS011;53940;53.204;6.590;2022-07-23T15:03:55;2.45;;;0.85;;
67037;SDS011;53940;53.204;6.590;2022-07-23T15:06:55;3.42;;;0.80;;
67037;SDS011;53940;53.204;6.590;2022-07-23T15:09:56;2.42;;;0.90;;
67037;SDS011;53940;53.204;6.590;2022-07-23T15:12:57;1.83;;;0.80;;
67037;SDS011;53940;53.204;6.590;2022-07-23T15:15:57;2.47;;;0.80;;
67037;SDS011;53940;53.204;6.590;2022-07-23T15:18:57;2.83;;;0.98;;
67037;SDS011;53940;53.204;6.590;2022-07-23T15:21:58;1.40;;;0.70;;
67037;SDS011;53940;53.204;6.590;2022-07-23T15:25:02;2.45;;;0.90;;
67037;SDS011;53940;53.204;6.590;2022-07-23T15:28:02;2.20;;;0.90;;
67037;SDS011;53940;53.204;6.590;2022-07-23T15:31:03;1.70;;;0.85;;
67037;SDS011;53940;53.204;6.590;2022-07-23T15:34:03;1.80;;;0.77;;
67037;SDS011;53940;53.204;6.590;2022-07-23T15:37:04;1.85;;;0.75;;
67037;SDS011;53940;53.204;6.590;2022-07-23T15:40:08;1.67;;;0.80;;
67037;SDS011;53940;53.204;6.590;2022-07-23T15:43:09;3.03;;;1.00;;
67037;SDS011;53940;53.204;6.590;2022-07-23T15:46:09;1.65;;;0.60;;
67037;SDS011;53940;53.204;6.590;2022-07-23T15:49:10;1.77;;;0.73;;
67037;SDS011;53940;53.204;6.590;2022-07-23T15:52:10;1.88;;;0.70;;
67037;SDS011;53940;53.204;6.590;2022-07-23T15:55:10;2.58;;;0.80;;
67037;SDS011;53940;53.204;6.590;2022-07-23T15:58:11;2.33;;;0.90;;
67037;SDS011;53940;53.204;6.590;2022-07-23T16:01:12;1.60;;;0.60;;
67037;SDS011;53940;53.204;6.590;2022-07-23T16:04:12;3.05;;;0.75;;
67037;SDS011;53940;53.204;6.590;2022-07-23T16:07:13;2.33;;;0.80;;
67037;SDS011;53940;53.204;6.590;2022-07-23T16:10:13;1.00;;;0.60;;
67037;SDS011;53940;53.204;6.590;2022-07-23T16:13:13;1.75;;;0.70;;
67037;SDS011;53940;53.204;6.590;2022-07-23T16:16:14;2.70;;;0.90;;
67037;SDS011;53940;53.204;6.590;2022-07-23T16:19:14;2.97;;;0.80;;
67037;SDS011;53940;53.204;6.590;2022-07-23T16:22:15;2.35;;;0.88;;
67037;SDS011;53940;53.204;6.590;2022-07-23T16:25:16;2.97;;;0.70;;
67037;SDS011;53940;53.204;6.590;2022-07-23T16:28:16;2.50;;;1.00;;
67037;SDS011;53940;53.204;6.590;2022-07-23T16:31:16;1.23;;;0.60;;
67037;SDS011;53940;53.204;6.590;2022-07-23T16:34:17;3.55;;;1.08;;
67037;SDS011;53940;53.204;6.590;2022-07-23T16:37:17;2.97;;;0.70;;
67037;SDS011;53940;53.204;6.590;2022-07-23T16:40:18;1.77;;;0.75;;
67037;SDS011;53940;53.204;6.590;2022-07-23T16:43:19;1.90;;;0.80;;
67037;SDS011;53940;53.204;6.590;2022-07-23T16:46:19;2.42;;;0.85;;
67037;SDS011;53940;53.204;6.590;2022-07-23T16:49:20;1.83;;;0.70;;
67037;SDS011;53940;53.204;6.590;2022-07-23T16:52:20;1.38;;;0.60;;
67037;SDS011;53940;53.204;6.590;2022-07-23T16:55:21;3.72;;;0.80;;
67037;SDS011;53940;53.204;6.590;2022-07-23T16:58:21;1.45;;;0.60;;
67037;SDS011;53940;53.204;6.590;2022-07-23T17:01:22;2.28;;;0.70;;
67037;SDS011;53940;53.204;6.590;2022-07-23T17:04:22;2.33;;;0.73;;
67037;SDS011;53940;53.204;6.590;2022-07-23T17:07:22;2.25;;;0.88;;
67037;SDS011;53940;53.204;6.590;2022-07-23T17:10:23;2.45;;;0.77;;
67037;SDS011;53940;53.204;6.590;2022-07-23T17:13:23;1.33;;;0.70;;
67037;SDS011;53940;53.204;6.590;2022-07-23T17:16:24;1.70;;;0.73;;
67037;SDS011;53940;53.204;6.590;2022-07-23T17:19:25;2.55;;;0.80;;
67037;SDS011;53940;53.204;6.590;2022-07-23T17:22:25;2.53;;;0.80;;
67037;SDS011;53940;53.204;6.590;2022-07-23T17:25:26;2.80;;;0.60;;
67037;SDS011;53940;53.204;6.590;2022-07-23T17:28:26;2.00;;;0.73;;
67037;SDS011;53940;53.204;6.590;2022-07-23T17:31:27;2.25;;;0.70;;
67037;SDS011;53940;53.204;6.590;2022-07-23T17:34:28;1.40;;;0.70;;
67037;SDS011;53940;53.204;6.590;2022-07-23T17:37:28;1.40;;;0.60;;
67037;SDS011;53940;53.204;6.590;2022-07-23T17:40:29;2.95;;;0.80;;
67037;SDS011;53940;53.204;6.590;2022-07-23T17:43:29;1.80;;;0.88;;
67037;SDS011;53940;53.204;6.590;2022-07-23T17:46:30;1.55;;;0.75;;
67037;SDS011;53940;53.204;6.590;2022-07-23T17:49:30;2.83;;;0.70;;
67037;SDS011;53940;53.204;6.590;2022-07-23T17:52:31;2.20;;;0.80;;
67037;SDS011;53940;53.204;6.590;2022-07-23T17:55:31;1.40;;;0.73;;
67037;SDS011;53940;53.204;6.590;2022-07-23T17:58:32;2.35;;;0.80;;
67037;SDS011;53940;53.204;6.590;2022-07-23T18:01:34;1.80;;;0.70;;
67037;SDS011;53940;53.204;6.590;2022-07-23T18:04:36;2.63;;;0.80;;
67037;SDS011;53940;53.204;6.590;2022-07-23T18:07:37;1.40;;;0.70;;
67037;SDS011;53940;53.204;6.590;2022-07-23T18:10:37;1.38;;;0.60;;
67037;SDS011;53940;53.204;6.590;2022-07-23T18:13:38;1.40;;;0.70;;
67037;SDS011;53940;53.204;6.590;2022-07-23T18:16:38;3.03;;;0.70;;
67037;SDS011;53940;53.204;6.590;2022-07-23T18:19:38;1.42;;;0.63;;
67037;SDS011;53940;53.204;6.590;2022-07-23T18:22:39;1.10;;;0.68;;
67037;SDS011;53940;53.204;6.590;2022-07-23T18:25:40;1.75;;;0.70;;